Terminal Aerodrome Forecast
Issued by NWS

Current Version | Previous Version | Graphics & Text | Print | Product List | Glossary On
Versions: 1 2 3 4 5 6 7 8 9 10 11 12 13 14 15 16 17 18 19 20 21 22 23 24 25
000
FTUS41 KPBZ 242100 AAA
TAFMGW
TAF AMD
KMGW 242146Z 2422/2518 26005KT 5SM BR OVC015
      TEMPO 2422/2502 OVC008
     FM250200 24005KT 3SM -SHSN OVC008=

USA.gov is the U.S. government's official web portal to all federal, state and local government web resources and services.